sensor_id;sensor_type;location;lat;lon;timestamp;temperature;humidity
73438;DHT22;66471;56.532;21.020;2024-01-27T07:07:28;0.40;99.90
73438;DHT22;66471;56.532;21.020;2024-01-27T07:09:56;0.40;99.90
73438;DHT22;66471;56.532;21.020;2024-01-27T07:12:23;0.40;99.90
73438;DHT22;66471;56.532;21.020;2024-01-27T07:14:52;0.30;99.90
73438;DHT22;66471;56.532;21.020;2024-01-27T07:17:23;0.50;99.90
73438;DHT22;66471;56.532;21.020;2024-01-27T07:19:51;0.60;99.90
73438;DHT22;66471;56.532;21.020;2024-01-27T07:22:18;0.60;99.90
73438;DHT22;66471;56.532;21.020;2024-01-27T07:24:45;0.40;99.90
73438;DHT22;66471;56.532;21.020;2024-01-27T07:27:13;0.60;99.90
73438;DHT22;66471;56.532;21.020;2024-01-27T07:29:41;0.60;99.90
73438;DHT22;66471;56.532;21.020;2024-01-27T07:32:08;0.50;99.90
73438;DHT22;66471;56.532;21.020;2024-01-27T07:34:43;0.60;99.90
73438;DHT22;66471;56.532;21.020;2024-01-27T07:37:11;0.60;99.90
73438;DHT22;66471;56.532;21.020;2024-01-27T07:39:38;0.60;99.90
73438;DHT22;66471;56.532;21.020;2024-01-27T07:42:06;0.60;99.90
73438;DHT22;66471;56.532;21.020;2024-01-27T07:44:33;0.70;99.90
73438;DHT22;66471;56.532;21.020;2024-01-27T07:47:00;0.70;99.90
73438;DHT22;66471;56.532;21.020;2024-01-27T07:49:27;0.50;99.90
73438;DHT22;66471;56.532;21.020;2024-01-27T07:51:55;0.70;99.90
73438;DHT22;66471;56.532;21.020;2024-01-27T07:54:22;0.60;99.90
73438;DHT22;66471;56.532;21.020;2024-01-27T07:56:49;0.60;99.90
73438;DHT22;66471;56.532;21.020;2024-01-27T07:59:17;0.70;99.90
73438;DHT22;66471;56.532;21.020;2024-01-27T08:01:44;0.80;99.90
73438;DHT22;66471;56.532;21.020;2024-01-27T08:04:11;0.70;99.90
73438;DHT22;66471;56.532;21.020;2024-01-27T08:06:47;0.60;99.90
73438;DHT22;66471;56.532;21.020;2024-01-27T08:09:15;0.90;99.90
73438;DHT22;66471;56.532;21.020;2024-01-27T08:11:44;0.90;99.90
73438;DHT22;66471;56.532;21.020;2024-01-27T08:14:11;0.60;99.90
73438;DHT22;66471;56.532;21.020;2024-01-27T08:16:39;0.80;99.90
73438;DHT22;66471;56.532;21.020;2024-01-27T08:19:06;0.70;99.90
73438;DHT22;66471;56.532;21.020;2024-01-27T08:21:33;0.70;99.90
73438;DHT22;66471;56.532;21.020;2024-01-27T08:24:01;0.90;99.90
73438;DHT22;66471;56.532;21.020;2024-01-27T08:26:28;0.90;99.90
73438;DHT22;66471;56.532;21.020;2024-01-27T08:28:55;0.80;99.90
73438;DHT22;66471;56.532;21.020;2024-01-27T08:31:23;0.80;99.90
73438;DHT22;66471;56.532;21.020;2024-01-27T08:33:51;0.90;99.90
73438;DHT22;66471;56.532;21.020;2024-01-27T08:36:19;0.80;99.90
73438;DHT22;66471;56.532;21.020;2024-01-27T08:38:48;0.80;99.90
73438;DHT22;66471;56.532;21.020;2024-01-27T08:41:19;0.80;99.90
73438;DHT22;66471;56.532;21.020;2024-01-27T08:43:46;0.80;99.90
73438;DHT22;66471;56.532;21.020;2024-01-27T08:46:13;0.90;99.90
73438;DHT22;66471;56.532;21.020;2024-01-27T08:48:42;0.70;99.90
73438;DHT22;66471;56.532;21.020;2024-01-27T08:51:09;0.80;99.90
73438;DHT22;66471;56.532;21.020;2024-01-27T08:53:37;0.80;99.90
73438;DHT22;66471;56.532;21.020;2024-01-27T08:56:04;0.60;99.90
73438;DHT22;66471;56.532;21.020;2024-01-27T08:58:32;0.90;99.90
73438;DHT22;66471;56.532;21.020;2024-01-27T09:01:00;0.90;99.90
73438;DHT22;66471;56.532;21.020;2024-01-27T09:03:32;0.90;99.90
73438;DHT22;66471;56.532;21.020;2024-01-27T09:06:00;0.90;99.90
73438;DHT22;66471;56.532;21.020;2024-01-27T09:08:28;0.80;99.90
73438;DHT22;66471;56.532;21.020;2024-01-27T09:10:55;0.90;99.90
73438;DHT22;66471;56.532;21.020;2024-01-27T09:13:22;1.00;99.90
73438;DHT22;66471;56.532;21.020;2024-01-27T09:15:50;1.10;99.90
73438;DHT22;66471;56.532;21.020;2024-01-27T09:18:20;0.90;99.90
73438;DHT22;66471;56.532;21.020;2024-01-27T09:20:53;1.00;99.90
73438;DHT22;66471;56.532;21.020;2024-01-27T09:23:20;1.00;99.90
73438;DHT22;66471;56.532;21.020;2024-01-27T09:25:47;1.00;99.90
73438;DHT22;66471;56.532;21.020;2024-01-27T09:28:15;1.10;99.90
73438;DHT22;66471;56.532;21.020;2024-01-27T09:30:43;0.80;99.90
73438;DHT22;66471;56.532;21.020;2024-01-27T09:33:11;1.10;99.90
73438;DHT22;66471;56.532;21.020;2024-01-27T09:35:39;1.00;99.90
73438;DHT22;66471;56.532;21.020;2024-01-27T09:38:06;0.90;99.90
73438;DHT22;66471;56.532;21.020;2024-01-27T09:40:40;0.90;99.90
73438;DHT22;66471;56.532;21.020;2024-01-27T09:43:10;1.00;99.90
73438;DHT22;66471;56.532;21.020;2024-01-27T09:45:40;0.90;99.90
73438;DHT22;66471;56.532;21.020;2024-01-27T09:48:09;0.90;99.90
73438;DHT22;66471;56.532;21.020;2024-01-27T09:50:40;1.00;99.90
73438;DHT22;66471;56.532;21.020;2024-01-27T09:53:07;0.90;99.90
73438;DHT22;66471;56.532;21.020;2024-01-27T09:55:36;1.00;99.90
73438;DHT22;66471;56.532;21.020;2024-01-27T09:58:04;1.10;99.90
73438;DHT22;66471;56.532;21.020;2024-01-27T10:00:34;1.00;99.90
73438;DHT22;66471;56.532;21.020;2024-01-27T10:03:04;1.00;99.90
73438;DHT22;66471;56.532;21.020;2024-01-27T10:05:32;1.20;99.90
73438;DHT22;66471;56.532;21.020;2024-01-27T10:07:59;1.20;99.90
73438;DHT22;66471;56.532;21.020;2024-01-27T10:10:26;1.20;99.90
73438;DHT22;66471;56.532;21.020;2024-01-27T10:12:56;1.30;99.90
73438;DHT22;66471;56.532;21.020;2024-01-27T10:15:25;1.30;99.90
73438;DHT22;66471;56.532;21.020;2024-01-27T10:18:05;1.20;99.90
73438;DHT22;66471;56.532;21.020;2024-01-27T10:20:34;1.50;99.90
73438;DHT22;66471;56.532;21.020;2024-01-27T10:23:10;1.50;99.90
73438;DHT22;66471;56.532;21.020;2024-01-27T10:25:42;1.60;99.90
73438;DHT22;66471;56.532;21.020;2024-01-27T10:28:09;1.60;99.90
73438;DHT22;66471;56.532;21.020;2024-01-27T10:30:37;1.50;99.90
73438;DHT22;66471;56.532;21.020;2024-01-27T10:33:08;1.70;99.90
73438;DHT22;66471;56.532;21.020;2024-01-27T10:35:37;1.50;99.90
73438;DHT22;66471;56.532;21.020;2024-01-27T10:38:05;1.20;99.90
73438;DHT22;66471;56.532;21.020;2024-01-27T10:40:32;1.40;99.90
73438;DHT22;66471;56.532;21.020;2024-01-27T10:45:35;1.40;99.90
73438;DHT22;66471;56.532;21.020;2024-01-27T10:48:04;1.40;99.90
73438;DHT22;66471;56.532;21.020;2024-01-27T10:50:35;1.50;99.90
73438;DHT22;66471;56.532;21.020;2024-01-27T10:53:22;1.50;99.90
73438;DHT22;66471;56.532;21.020;2024-01-27T10:55:58;1.60;99.90
73438;DHT22;66471;56.532;21.020;2024-01-27T10:58:27;1.60;99.90
73438;DHT22;66471;56.532;21.020;2024-01-27T11:00:57;1.50;99.90
73438;DHT22;66471;56.532;21.020;2024-01-27T11:03:27;1.40;99.90
73438;DHT22;66471;56.532;21.020;2024-01-27T11:05:55;1.60;99.90
73438;DHT22;66471;56.532;21.020;2024-01-27T11:08:24;1.80;99.90
73438;DHT22;66471;56.532;21.020;2024-01-27T11:10:55;1.60;99.90
73438;DHT22;66471;56.532;21.020;2024-01-27T11:13:23;1.70;99.90
73438;DHT22;66471;56.532;21.020;2024-01-27T11:15:52;1.70;99.90
73438;DHT22;66471;56.532;21.020;2024-01-27T11:18:20;1.70;99.90
73438;DHT22;66471;56.532;21.020;2024-01-27T11:20:47;1.80;99.90
73438;DHT22;66471;56.532;21.020;2024-01-27T11:23:15;1.80;99.90
73438;DHT22;66471;56.532;21.020;2024-01-27T11:25:42;1.60;99.90
73438;DHT22;66471;56.532;21.020;2024-01-27T11:28:13;2.00;99.90
73438;DHT22;66471;56.532;21.020;2024-01-27T11:30:46;1.90;99.90
73438;DHT22;66471;56.532;21.020;2024-01-27T11:33:15;2.00;99.90
73438;DHT22;66471;56.532;21.020;2024-01-27T11:35:42;1.90;99.90
73438;DHT22;66471;56.532;21.020;2024-01-27T11:38:09;1.80;99.90
73438;DHT22;66471;56.532;21.020;2024-01-27T11:40:49;1.80;99.90
73438;DHT22;66471;56.532;21.020;2024-01-27T11:43:17;1.80;99.90
73438;DHT22;66471;56.532;21.020;2024-01-27T11:45:54;2.00;99.90
73438;DHT22;66471;56.532;21.020;2024-01-27T11:48:22;1.90;99.90
73438;DHT22;66471;56.532;21.020;2024-01-27T11:51:05;1.80;99.90
73438;DHT22;66471;56.532;21.020;2024-01-27T11:53:33;1.70;99.90
73438;DHT22;66471;56.532;21.020;2024-01-27T11:56:00;1.80;99.90
73438;DHT22;66471;56.532;21.020;2024-01-27T11:58:28;1.60;99.90
73438;DHT22;66471;56.532;21.020;2024-01-27T12:00:57;1.70;99.90
73438;DHT22;66471;56.532;21.020;2024-01-27T12:03:28;1.70;99.90
73438;DHT22;66471;56.532;21.020;2024-01-27T12:05:56;1.80;99.90
73438;DHT22;66471;56.532;21.020;2024-01-27T12:08:23;1.80;99.90
73438;DHT22;66471;56.532;21.020;2024-01-27T12:10:51;1.60;99.90
73438;DHT22;66471;56.532;21.020;2024-01-27T12:13:18;1.50;99.90
73438;DHT22;66471;56.532;21.020;2024-01-27T12:15:46;1.60;99.90
73438;DHT22;66471;56.532;21.020;2024-01-27T12:18:14;1.50;99.90
73438;DHT22;66471;56.532;21.020;2024-01-27T12:20:45;1.70;99.90
73438;DHT22;66471;56.532;21.020;2024-01-27T12:23:12;1.80;99.90
73438;DHT22;66471;56.532;21.020;2024-01-27T12:25:39;1.40;99.90
73438;DHT22;66471;56.532;21.020;2024-01-27T12:28:07;1.60;99.90
73438;DHT22;66471;56.532;21.020;2024-01-27T12:30:36;1.60;99.90
73438;DHT22;66471;56.532;21.020;2024-01-27T12:33:09;1.50;99.90
73438;DHT22;66471;56.532;21.020;2024-01-27T12:35:39;1.60;99.90
73438;DHT22;66471;56.532;21.020;2024-01-27T12:38:06;1.70;99.90
73438;DHT22;66471;56.532;21.020;2024-01-27T12:40:33;1.60;99.90
73438;DHT22;66471;56.532;21.020;2024-01-27T12:43:00;1.70;99.90
73438;DHT22;66471;56.532;21.020;2024-01-27T12:45:27;1.70;99.90
73438;DHT22;66471;56.532;21.020;2024-01-27T12:47:57;1.60;99.90
73438;DHT22;66471;56.532;21.020;2024-01-27T12:50:24;1.70;99.90
73438;DHT22;66471;56.532;21.020;2024-01-27T12:52:51;1.70;99.90
73438;DHT22;66471;56.532;21.020;2024-01-27T12:55:18;1.80;99.90
73438;DHT22;66471;56.532;21.020;2024-01-27T12:57:47;1.80;99.90
73438;DHT22;66471;56.532;21.020;2024-01-27T13:00:14;1.90;99.90
73438;DHT22;66471;56.532;21.020;2024-01-27T13:02:42;1.90;99.90
73438;DHT22;66471;56.532;21.020;2024-01-27T13:05:10;2.00;99.90
73438;DHT22;66471;56.532;21.020;2024-01-27T13:07:37;2.10;99.90
73438;DHT22;66471;56.532;21.020;2024-01-27T13:10:05;2.10;99.90
73438;DHT22;66471;56.532;21.020;2024-01-27T13:12:33;2.30;99.90
73438;DHT22;66471;56.532;21.020;2024-01-27T13:15:00;2.00;99.90
73438;DHT22;66471;56.532;21.020;2024-01-27T13:17:27;2.10;99.90
73438;DHT22;66471;56.532;21.020;2024-01-27T13:19:54;2.00;99.90
73438;DHT22;66471;56.532;21.020;2024-01-27T13:22:22;2.00;99.90
73438;DHT22;66471;56.532;21.020;2024-01-27T13:24:51;1.90;99.90
73438;DHT22;66471;56.532;21.020;2024-01-27T13:27:19;1.90;99.90
73438;DHT22;66471;56.532;21.020;2024-01-27T13:29:47;1.90;99.90
73438;DHT22;66471;56.532;21.020;2024-01-27T13:32:14;1.70;99.90
73438;DHT22;66471;56.532;21.020;2024-01-27T13:34:41;1.80;99.90
73438;DHT22;66471;56.532;21.020;2024-01-27T13:37:08;2.10;99.90
73438;DHT22;66471;56.532;21.020;2024-01-27T13:39:36;1.90;99.90
73438;DHT22;66471;56.532;21.020;2024-01-27T13:42:04;1.90;99.90
73438;DHT22;66471;56.532;21.020;2024-01-27T13:44:32;2.00;99.90
73438;DHT22;66471;56.532;21.020;2024-01-27T13:47:03;1.80;99.90
73438;DHT22;66471;56.532;21.020;2024-01-27T13:49:32;2.30;99.90
73438;DHT22;66471;56.532;21.020;2024-01-27T13:51:59;2.10;99.90
73438;DHT22;66471;56.532;21.020;2024-01-27T13:54:31;2.10;99.90
73438;DHT22;66471;56.532;21.020;2024-01-27T13:57:00;2.10;99.90
73438;DHT22;66471;56.532;21.020;2024-01-27T13:59:27;2.00;99.90
73438;DHT22;66471;56.532;21.020;2024-01-27T14:01:54;2.10;99.90
73438;DHT22;66471;56.532;21.020;2024-01-27T14:04:24;2.00;99.90
73438;DHT22;66471;56.532;21.020;2024-01-27T14:06:52;1.80;99.90
73438;DHT22;66471;56.532;21.020;2024-01-27T14:09:23;1.80;99.90
73438;DHT22;66471;56.532;21.020;2024-01-27T14:11:50;1.70;99.90
73438;DHT22;66471;56.532;21.020;2024-01-27T14:14:18;1.70;99.90
73438;DHT22;66471;56.532;21.020;2024-01-27T14:16:46;1.90;99.90
73438;DHT22;66471;56.532;21.020;2024-01-27T14:19:13;1.70;99.90
73438;DHT22;66471;56.532;21.020;2024-01-27T14:21:40;1.70;99.90
73438;DHT22;66471;56.532;21.020;2024-01-27T14:24:08;1.60;99.90
73438;DHT22;66471;56.532;21.020;2024-01-27T14:26:35;1.60;99.90
73438;DHT22;66471;56.532;21.020;2024-01-27T14:29:03;1.50;99.90
73438;DHT22;66471;56.532;21.020;2024-01-27T14:31:31;1.70;99.90
73438;DHT22;66471;56.532;21.020;2024-01-27T14:33:58;1.70;99.90
73438;DHT22;66471;56.532;21.020;2024-01-27T14:36:26;1.60;99.90
73438;DHT22;66471;56.532;21.020;2024-01-27T14:38:53;1.80;99.90
73438;DHT22;66471;56.532;21.020;2024-01-27T14:41:21;1.60;99.90
73438;DHT22;66471;56.532;21.020;2024-01-27T14:43:48;1.60;99.90
73438;DHT22;66471;56.532;21.020;2024-01-27T14:46:18;1.60;99.90
73438;DHT22;66471;56.532;21.020;2024-01-27T14:48:45;1.70;99.90
73438;DHT22;66471;56.532;21.020;2024-01-27T14:51:13;1.70;99.90
73438;DHT22;66471;56.532;21.020;2024-01-27T14:53:40;1.50;99.90
73438;DHT22;66471;56.532;21.020;2024-01-27T14:56:08;1.70;99.90
73438;DHT22;66471;56.532;21.020;2024-01-27T14:58:35;1.70;99.90
73438;DHT22;66471;56.532;21.020;2024-01-27T15:01:02;1.70;99.90
73438;DHT22;66471;56.532;21.020;2024-01-27T15:03:29;1.50;99.90
73438;DHT22;66471;56.532;21.020;2024-01-27T15:05:57;1.70;99.90
73438;DHT22;66471;56.532;21.020;2024-01-27T15:08:26;1.70;99.90
73438;DHT22;66471;56.532;21.020;2024-01-27T15:10:53;1.60;99.90
73438;DHT22;66471;56.532;21.020;2024-01-27T15:13:21;1.80;99.90
73438;DHT22;66471;56.532;21.020;2024-01-27T15:15:51;1.70;99.90
73438;DHT22;66471;56.532;21.020;2024-01-27T15:18:19;1.60;99.90
73438;DHT22;66471;56.532;21.020;2024-01-27T15:20:49;1.60;99.90
73438;DHT22;66471;56.532;21.020;2024-01-27T15:23:17;1.70;99.90
73438;DHT22;66471;56.532;21.020;2024-01-27T15:25:59;1.70;99.90
73438;DHT22;66471;56.532;21.020;2024-01-27T15:28:28;1.60;99.90
73438;DHT22;66471;56.532;21.020;2024-01-27T15:30:55;1.70;99.90
73438;DHT22;66471;56.532;21.020;2024-01-27T15:33:22;1.60;99.90
73438;DHT22;66471;56.532;21.020;2024-01-27T15:35:51;1.80;99.90
73438;DHT22;66471;56.532;21.020;2024-01-27T15:38:18;1.70;99.90
73438;DHT22;66471;56.532;21.020;2024-01-27T15:40:45;1.60;99.90
73438;DHT22;66471;56.532;21.020;2024-01-27T15:43:13;1.50;99.90
73438;DHT22;66471;56.532;21.020;2024-01-27T15:45:40;1.30;99.90
73438;DHT22;66471;56.532;21.020;2024-01-27T15:48:07;1.60;99.90
73438;DHT22;66471;56.532;21.020;2024-01-27T15:50:35;1.40;99.90
73438;DHT22;66471;56.532;21.020;2024-01-27T15:53:02;1.40;99.90
73438;DHT22;66471;56.532;21.020;2024-01-27T15:55:30;1.50;99.90
73438;DHT22;66471;56.532;21.020;2024-01-27T15:57:59;1.30;99.90
73438;DHT22;66471;56.532;21.020;2024-01-27T16:00:27;1.50;99.90
73438;DHT22;66471;56.532;21.020;2024-01-27T16:02:55;1.50;99.90
73438;DHT22;66471;56.532;21.020;2024-01-27T16:05:22;2.60;99.90
73438;DHT22;66471;56.532;21.020;2024-01-27T16:07:50;3.90;99.90
73438;DHT22;66471;56.532;21.020;2024-01-27T16:10:17;4.30;99.90
73438;DHT22;66471;56.532;21.020;2024-01-27T16:12:45;4.50;99.90
73438;DHT22;66471;56.532;21.020;2024-01-27T16:15:12;4.70;99.90
73438;DHT22;66471;56.532;21.020;2024-01-27T16:17:39;3.90;99.90
73438;DHT22;66471;56.532;21.020;2024-01-27T16:20:09;4.50;99.90
73438;DHT22;66471;56.532;21.020;2024-01-27T16:23:55;5.00;99.90
73438;DHT22;66471;56.532;21.020;2024-01-27T16:26:23;6.10;99.90
73438;DHT22;66471;56.532;21.020;2024-01-27T16:28:51;6.50;99.90
73438;DHT22;66471;56.532;21.020;2024-01-27T16:31:18;5.90;95.50
73438;DHT22;66471;56.532;21.020;2024-01-27T16:33:45;4.80;96.30
73438;DHT22;66471;56.532;21.020;2024-01-27T16:36:13;4.00;97.20
73438;DHT22;66471;56.532;21.020;2024-01-27T16:38:40;3.40;99.00
73438;DHT22;66471;56.532;21.020;2024-01-27T16:41:11;3.20;99.80
73438;DHT22;66471;56.532;21.020;2024-01-27T16:43:38;2.70;99.90
73438;DHT22;66471;56.532;21.020;2024-01-27T16:46:05;2.60;99.90
